createdAt,value
2023-03-29T03:33:21.673Z,101273.66
2023-03-29T03:36:29.185Z,101273.66
2023-03-29T03:39:32.672Z,101272.78
2023-03-29T03:42:36.197Z,101277.09
2023-03-29T03:45:39.937Z,101276.22
2023-03-29T03:48:43.658Z,101279.47
2023-03-29T03:51:46.402Z,101277.75
2023-03-29T03:54:50.357Z,101282.84
2023-03-29T03:57:54.295Z,101281.34
2023-03-29T04:00:58.102Z,101276.44
2023-03-29T04:04:03.050Z,101284.91
2023-03-29T04:07:06.830Z,101285.72
2023-03-29T04:10:11.220Z,101285.66
2023-03-29T04:13:14.864Z,101290.87
2023-03-29T04:16:21.481Z,101278.91
2023-03-29T04:19:24.612Z,101281.25
2023-03-29T04:22:27.578Z,101281.25
2023-03-29T04:25:30.354Z,101283.19
2023-03-29T04:28:36.292Z,101286.62
2023-03-29T04:31:40.054Z,101282.34
2023-03-29T04:34:44.701Z,101284.97
2023-03-29T04:37:48.329Z,101283.56
2023-03-29T04:40:51.539Z,101283.56
2023-03-29T04:43:56.084Z,101287.13
2023-03-29T04:47:00.476Z,101275.19
2023-03-29T04:50:04.782Z,101275.31
2023-03-29T04:53:08.539Z,101277.28
2023-03-29T04:56:11.503Z,101280.16
2023-03-29T04:59:16.423Z,101280.47
2023-03-29T05:02:19.638Z,101292.03
2023-03-29T05:05:22.932Z,101285.31
2023-03-29T05:08:26.287Z,101294.16
2023-03-29T05:11:29.956Z,101296.09
2023-03-29T05:14:32.673Z,101297.97
2023-03-29T05:17:36.074Z,101297.16
2023-03-29T05:20:40.512Z,101296.38
2023-03-29T05:23:44.891Z,101286.03
2023-03-29T05:26:51.773Z,101293.88
2023-03-29T05:29:55.444Z,101293.09
2023-03-29T05:33:00.422Z,101291.44
2023-03-29T05:36:11.261Z,101288.09
2023-03-29T05:39:15.614Z,101290.81
2023-03-29T05:42:22.638Z,101290.84
2023-03-29T05:45:28.604Z,101284.75
2023-03-29T05:48:32.650Z,101296.06
2023-03-29T05:51:36.415Z,101298.66
2023-03-29T05:54:41.416Z,101306.50
2023-03-29T05:57:44.284Z,101300.41
2023-03-29T06:00:49.675Z,101303.00
2023-03-29T06:03:53.637Z,101298.66
2023-03-29T06:06:57.524Z,101304.72
2023-03-29T06:10:00.693Z,101310.75
2023-03-29T06:13:03.508Z,101309.00
2023-03-29T06:16:10.786Z,101311.59
2023-03-29T06:19:13.642Z,101313.28
2023-03-29T06:22:17.136Z,101308.06
2023-03-29T06:25:21.096Z,101314.91
2023-03-29T06:28:26.905Z,101316.69
2023-03-29T06:31:31.415Z,101320.16
2023-03-29T06:34:36.667Z,101321.75
2023-03-29T06:37:49.545Z,101313.84
2023-03-29T06:41:01.159Z,101320.69
2023-03-29T06:44:06.040Z,101328.19
2023-03-29T06:47:09.269Z,101328.84
2023-03-29T06:50:12.015Z,101331.13
2023-03-29T06:53:15.768Z,101330.91
2023-03-29T06:56:19.505Z,101327.44
2023-03-29T06:59:22.435Z,101329.72
2023-03-29T07:02:25.716Z,101330.59
2023-03-29T07:05:29.411Z,101331.94
2023-03-29T07:08:32.749Z,101338.44
2023-03-29T07:11:36.444Z,101339.97
2023-03-29T07:14:39.900Z,101344.44
2023-03-29T07:17:42.884Z,101344.38
2023-03-29T07:20:47.622Z,101345.00
2023-03-29T07:23:52.229Z,101354.66
2023-03-29T07:27:03.261Z,101348.59
2023-03-29T07:30:11.182Z,101353.06
2023-03-29T07:33:14.274Z,101355.53
2023-03-29T07:36:18.484Z,101358.53
2023-03-29T07:39:22.451Z,101360.66
2023-03-29T07:42:28.894Z,101356.84
2023-03-29T07:45:31.949Z,101369.97
2023-03-29T07:48:37.152Z,101368.03
2023-03-29T07:51:40.426Z,101367.25
2023-03-29T07:54:43.710Z,101357.78
2023-03-29T07:57:49.251Z,101359.81
2023-03-29T08:00:53.325Z,101363.63
2023-03-29T08:03:57.656Z,101357.84
2023-03-29T08:07:01.605Z,101372.69
2023-03-29T08:10:06.826Z,101362.37
2023-03-29T08:13:10.457Z,101357.38
2023-03-29T08:16:13.718Z,101365.00
2023-03-29T08:19:18.653Z,101349.28
2023-03-29T08:22:22.393Z,101357.12
2023-03-29T08:25:30.343Z,101351.59
2023-03-29T08:28:33.799Z,101356.25
2023-03-29T08:31:36.818Z,101349.88
2023-03-29T08:34:39.832Z,101351.22
2023-03-29T08:37:43.333Z,101347.28
2023-03-29T08:40:49.539Z,101341.28
2023-03-29T08:43:58.175Z,101339.56
2023-03-29T08:47:04.161Z,101353.38
2023-03-29T08:50:08.882Z,101351.28
2023-03-29T08:53:38.474Z,101350.06
2023-03-29T08:56:44.928Z,101344.56
2023-03-29T08:59:52.758Z,101348.87
2023-03-29T09:02:59.127Z,101336.06
2023-03-29T09:06:06.749Z,101331.81
2023-03-29T09:09:15.915Z,101329.31
2023-03-29T09:12:36.504Z,101336.81
2023-03-29T09:16:01.462Z,101329.53
2023-03-29T09:19:20.899Z,101307.69
2023-03-29T09:22:50.687Z,101302.88
2023-03-29T09:26:12.377Z,101310.50
2023-03-29T09:29:35.287Z,101314.66
2023-03-29T09:32:53.142Z,101307.00
2023-03-29T09:36:05.068Z,101300.56
2023-03-29T09:39:16.791Z,101302.56
2023-03-29T09:42:21.634Z,101291.81
2023-03-29T09:45:25.002Z,101291.50
2023-03-29T09:48:31.890Z,101291.75
2023-03-29T09:51:38.681Z,101294.94
2023-03-29T09:54:41.711Z,101281.69
2023-03-29T09:57:46.781Z,101282.03
2023-03-29T10:00:50.362Z,101277.00
2023-03-29T10:03:53.888Z,101271.69
2023-03-29T10:06:59.945Z,101269.72
2023-03-29T10:10:03.210Z,101268.03
2023-03-29T10:13:11.278Z,101257.72
2023-03-29T10:16:20.493Z,101255.50
2023-03-29T10:19:36.827Z,101253.97
2023-03-29T10:22:45.981Z,101247.59
2023-03-29T10:25:48.889Z,101250.69
2023-03-29T10:28:57.480Z,101250.59
2023-03-29T10:32:00.214Z,101245.12
2023-03-29T10:35:12.673Z,101239.28
2023-03-29T10:38:19.079Z,101234.88
2023-03-29T10:41:23.609Z,101230.03
2023-03-29T10:44:28.007Z,101223.28
2023-03-29T10:47:34.585Z,101227.59
2023-03-29T10:50:38.243Z,101215.94
2023-03-29T10:53:42.429Z,101218.38
2023-03-29T10:57:03.470Z,101215.84
2023-03-29T11:00:19.763Z,101211.94
2023-03-29T11:03:28.774Z,101213.22
2023-03-29T11:06:52.867Z,101207.63
2023-03-29T11:10:14.728Z,101202.91
2023-03-29T11:13:35.922Z,101206.16
2023-03-29T11:17:04.310Z,101197.72
2023-03-29T11:20:28.670Z,101196.00
2023-03-29T11:24:13.245Z,101187.13
2023-03-29T11:27:41.106Z,101202.56
2023-03-29T11:31:16.278Z,101201.88
2023-03-29T11:34:40.834Z,101196.03
2023-03-29T11:37:59.696Z,101189.63
2023-03-29T11:41:27.066Z,101180.09
2023-03-29T11:44:36.040Z,101173.44
2023-03-29T11:47:41.021Z,101169.63
2023-03-29T11:51:02.485Z,101167.88
2023-03-29T11:54:11.672Z,101162.66
2023-03-29T11:57:29.820Z,101165.78
2023-03-29T12:00:38.566Z,101154.94
2023-03-29T12:03:49.976Z,101154.53
2023-03-29T12:07:11.527Z,101163.06
2023-03-29T12:10:21.098Z,101163.22
2023-03-29T12:13:30.558Z,101148.53
2023-03-29T12:16:41.709Z,101143.50
2023-03-29T12:19:49.818Z,101142.94
2023-03-29T12:22:53.791Z,101133.38
2023-03-29T12:26:09.217Z,101139.25
2023-03-29T12:29:51.028Z,101137.47
2023-03-29T12:33:32.478Z,101126.78
2023-03-29T12:37:09.298Z,101119.41
2023-03-29T12:40:16.841Z,101121.03
2023-03-29T12:43:37.612Z,101112.59
2023-03-29T12:46:41.149Z,101110.03
2023-03-29T12:49:45.851Z,101115.37
2023-03-29T12:52:49.309Z,101102.63
2023-03-29T12:56:13.643Z,101101.75
2023-03-29T12:59:37.120Z,101097.16
2023-03-29T13:02:40.252Z,101106.97
2023-03-29T13:05:44.303Z,101100.12
2023-03-29T13:09:01.576Z,101099.16
2023-03-29T13:12:10.361Z,101094.13
2023-03-29T13:15:19.112Z,101092.31
2023-03-29T13:18:53.317Z,101082.38
2023-03-29T13:22:02.562Z,101073.34
2023-03-29T13:25:29.844Z,101071.81
2023-03-29T13:29:09.657Z,101073.44
2023-03-29T13:32:33.349Z,101071.75
2023-03-29T13:35:57.612Z,101066.53
2023-03-29T13:39:05.405Z,101063.34
2023-03-29T13:42:08.837Z,101056.41
2023-03-29T13:45:27.442Z,101051.25
2023-03-29T13:48:36.667Z,101055.41
2023-03-29T13:51:42.942Z,101053.66
2023-03-29T13:54:58.069Z,101041.84
2023-03-29T13:58:14.656Z,101042.75
2023-03-29T14:01:54.651Z,101036.78
2023-03-29T14:05:01.924Z,101040.87
2023-03-29T14:08:13.643Z,101040.72
2023-03-29T14:11:29.526Z,101033.69
2023-03-29T14:14:33.053Z,101035.31
2023-03-29T14:17:37.347Z,101033.37
2023-03-29T14:20:46.195Z,101025.88
2023-03-29T14:23:56.277Z,101030.69
2023-03-29T14:27:02.212Z,101016.41
2023-03-29T14:30:23.935Z,101017.66
2023-03-29T14:33:29.235Z,101015.75
2023-03-29T14:36:33.516Z,101013.66
2023-03-29T14:39:37.034Z,101011.94
2023-03-29T14:42:41.185Z,101017.69
2023-03-29T14:45:44.500Z,101019.22
2023-03-29T14:48:48.278Z,101009.38
2023-03-29T14:51:52.375Z,101006.13
2023-03-29T14:54:58.426Z,101005.12
2023-03-29T14:58:01.334Z,101002.34
2023-03-29T15:01:25.395Z,100998.69
2023-03-29T15:04:36.027Z,100999.81
2023-03-29T15:07:39.969Z,100993.84
2023-03-29T15:10:44.838Z,101004.31
2023-03-29T15:13:51.488Z,101004.94
2023-03-29T15:17:03.199Z,101001.69
2023-03-29T15:20:27.979Z,100995.47
